LTBJ/ADB METAR and TAF weather

Enter ICAO airport designator
Station Type Date Time Source
LTBJ METAR 2021/10/20 06:20 UTC NOAA

LTBJ 200620Z 36014KT CAVOK 16/08 Q1023 NOSIG


Station Type Date Time Source
LTBJ Decoded METAR 2021/10/20 06:20 UTC NOAA

Izmir / Adnan Menderes, Turkey (LTBJ) 38-16N 027-09E 120M
Oct 20, 2021 - 02:20 AM EDT / 2021.10.20 0620 UTC
Wind: from the N (360 degrees) at 16 MPH (14 KT):0
Visibility: greater than 7 mile(s):0
Temperature: 60 F (16 C)
Dew Point: 46 F (8 C)
Relative Humidity: 58%
Pressure (altimeter): 30.21 in. Hg (1023 hPa)
ob: LTBJ 200620Z 36014KT CAVOK 16/08 Q1023 NOSIG
cycle: 6

Station Type Date Time Source
LTBJ TAF 2021/10/20 06:03 UTC NOAA

TAF LTBJ 200440Z 2006/2106 35013KT CAVOK
BECMG 2006/2009 36015G25KT FEW030
BECMG 2012/2015 CAVOK
BECMG 2018/2020 35012KT
BECMG 2022/2024 VRB02KT

Example: see airport list